Time;durP1;ratioP1;P1;durP2;ratioP2;P2;SDS_P1;SDS_P2;PMS_P1;PMS_P2;Temp;Humidity;BMP_temperature;BMP_pressure;BME280_temperature;BME280_humidity;BME280_pressure;Samples;Min_cycle;Max_cycle;Signal;HPM_P1;HPM_P2
2022/07/09 00:02:36;;;;;;;13.18;8.90;;;;;;;12.62;100.00;102670.81;10523644;28;20412;-73
2022/07/09 00:07:37;;;;;;;12.65;8.07;;;;;;;12.60;100.00;102666.28;10525784;28;20024;-74
2022/07/09 00:12:37;;;;;;;12.00;9.52;;;;;;;12.59;100.00;102661.84;10531361;28;20488;-73
2022/07/09 00:17:38;;;;;;;14.00;9.55;;;;;;;12.54;100.00;102658.00;10540863;28;20052;-74
2022/07/09 00:22:38;;;;;;;17.40;9.88;;;;;;;12.42;100.00;102661.59;10533350;28;20125;-74
2022/07/09 00:27:39;;;;;;;16.58;10.48;;;;;;;12.31;100.00;102657.31;10549148;28;20395;-74
2022/07/09 00:32:39;;;;;;;18.20;11.63;;;;;;;12.30;100.00;102652.88;10524055;28;20036;-73
2022/07/09 00:37:40;;;;;;;18.67;9.68;;;;;;;12.28;100.00;102654.47;10507510;28;20387;-73
2022/07/09 00:42:40;;;;;;;13.25;9.30;;;;;;;12.23;100.00;102648.00;10531591;28;20054;-74
2022/07/09 00:47:41;;;;;;;12.00;10.10;;;;;;;12.12;100.00;102640.28;10535708;28;20036;-73
2022/07/09 00:52:41;;;;;;;11.73;9.60;;;;;;;12.04;100.00;102638.84;10531395;28;20382;-73
2022/07/09 00:57:42;;;;;;;15.25;10.52;;;;;;;11.99;100.00;102640.19;10567668;28;20085;-74
2022/07/09 01:02:43;;;;;;;15.68;11.55;;;;;;;12.02;100.00;102640.44;10524400;28;20060;-73
2022/07/09 01:07:43;;;;;;;15.10;10.95;;;;;;;12.02;100.00;102643.06;10490559;28;20137;-73
2022/07/09 01:12:44;;;;;;;16.25;12.13;;;;;;;11.97;100.00;102640.06;10554999;28;20113;-73
2022/07/09 01:17:45;;;;;;;22.30;11.90;;;;;;;11.94;100.00;102638.97;10530620;28;20040;-74
2022/07/09 01:22:45;;;;;;;19.73;11.85;;;;;;;11.86;100.00;102635.78;10519673;28;20063;-74
2022/07/09 01:27:46;;;;;;;15.25;13.27;;;;;;;11.82;100.00;102641.63;10491122;28;20029;-73
2022/07/09 01:32:48;;;;;;;17.58;12.13;;;;;;;11.79;100.00;102633.53;10522257;28;20035;-73
2022/07/09 01:37:48;;;;;;;17.88;12.82;;;;;;;11.78;100.00;102630.00;10555492;28;20031;-74
2022/07/09 01:42:49;;;;;;;18.20;12.30;;;;;;;11.80;100.00;102614.38;10548898;28;20119;-73
2022/07/09 01:47:49;;;;;;;19.17;13.18;;;;;;;11.82;100.00;102615.38;10502840;28;20039;-74
2022/07/09 01:52:50;;;;;;;19.15;13.10;;;;;;;11.79;100.00;102610.84;10572057;28;20040;-74
2022/07/09 01:57:51;;;;;;;21.73;15.52;;;;;;;11.71;100.00;102606.78;10573211;28;20047;-74
2022/07/09 02:02:51;;;;;;;24.90;15.55;;;;;;;11.60;100.00;102609.53;10548272;28;20055;-74
2022/07/09 02:07:52;;;;;;;24.45;17.15;;;;;;;11.59;100.00;102605.09;10497019;28;20059;-74
2022/07/09 02:12:52;;;;;;;21.08;14.90;;;;;;;11.65;100.00;102599.38;10555853;28;20035;-74
2022/07/09 02:17:53;;;;;;;25.92;17.83;;;;;;;11.61;100.00;102592.06;10466044;28;20033;-75
2022/07/09 02:22:53;;;;;;;24.55;16.40;;;;;;;11.53;100.00;102588.00;10537883;28;20135;-75
2022/07/09 02:27:54;;;;;;;23.48;16.73;;;;;;;11.40;100.00;102595.00;10537626;28;20463;-73
2022/07/09 02:32:54;;;;;;;26.80;17.88;;;;;;;11.36;100.00;102598.19;10545588;28;20060;-74
2022/07/09 02:37:55;;;;;;;22.42;15.88;;;;;;;11.24;100.00;102597.31;10495130;28;20448;-74
2022/07/09 02:42:55;;;;;;;19.90;16.25;;;;;;;11.21;100.00;102592.75;10557165;28;20047;-74
2022/07/09 02:47:56;;;;;;;23.77;18.05;;;;;;;11.22;100.00;102596.28;10536262;28;20119;-73
2022/07/09 02:52:56;;;;;;;27.27;17.73;;;;;;;11.23;100.00;102601.66;10540674;28;20044;-74
2022/07/09 02:57:57;;;;;;;28.83;18.92;;;;;;;11.13;100.00;102594.81;10552718;28;20154;-73
2022/07/09 03:02:58;;;;;;;29.85;19.38;;;;;;;11.07;100.00;102589.13;10525080;28;20375;-73
2022/07/09 03:07:58;;;;;;;33.78;20.95;;;;;;;11.06;100.00;102581.16;10518903;28;20040;-73
2022/07/09 03:12:59;;;;;;;29.80;19.00;;;;;;;11.05;100.00;102582.84;10542804;28;20376;-74
2022/07/09 03:17:59;;;;;;;24.58;16.83;;;;;;;11.00;100.00;102576.38;10493596;28;20547;-74
2022/07/09 03:23:00;;;;;;;20.98;16.30;;;;;;;10.96;100.00;102570.00;10537070;28;20074;-73
2022/07/09 03:28:00;;;;;;;30.80;19.13;;;;;;;10.86;100.00;102576.25;10509427;28;20531;-74
2022/07/09 03:33:01;;;;;;;22.52;17.98;;;;;;;10.81;100.00;102575.00;10520480;28;20120;-73
2022/07/09 03:38:01;;;;;;;25.63;17.05;;;;;;;10.82;100.00;102570.69;10535962;28;20364;-73
2022/07/09 03:43:02;;;;;;;25.83;18.00;;;;;;;10.78;100.00;102569.53;10553286;28;20047;-73
2022/07/09 03:48:03;;;;;;;26.58;17.17;;;;;;;10.72;100.00;102579.56;10568362;28;20122;-73
2022/07/09 03:53:03;;;;;;;24.77;17.30;;;;;;;10.72;100.00;102582.19;10531817;28;20042;-74
2022/07/09 03:58:04;;;;;;;23.58;19.05;;;;;;;10.68;100.00;102585.38;10550268;28;20114;-73
2022/07/09 04:03:05;;;;;;;26.67;18.67;;;;;;;10.74;100.00;102580.59;10548489;28;20119;-74
2022/07/09 04:08:05;;;;;;;29.55;19.15;;;;;;;10.81;100.00;102582.88;10550382;28;20126;-74
2022/07/09 04:13:06;;;;;;;23.75;17.98;;;;;;;10.83;100.00;102580.38;10464170;28;20485;-75
2022/07/09 04:18:06;;;;;;;19.90;16.33;;;;;;;10.77;100.00;102585.16;10484346;28;20044;-73
2022/07/09 04:23:07;;;;;;;24.05;16.05;;;;;;;10.79;100.00;102586.19;10482581;28;20112;-73
2022/07/09 04:28:07;;;;;;;27.48;18.13;;;;;;;10.90;100.00;102595.75;10492213;28;20035;-73
2022/07/09 04:33:08;;;;;;;25.70;17.88;;;;;;;11.16;100.00;102591.53;10508162;28;20043;-73
2022/07/09 04:38:08;;;;;;;21.40;15.40;;;;;;;11.51;100.00;102594.84;10490940;28;20134;-73
2022/07/09 04:43:09;;;;;;;19.30;15.35;;;;;;;12.01;100.00;102587.03;10491994;28;20075;-74
2022/07/09 04:48:09;;;;;;;21.33;15.35;;;;;;;12.26;100.00;102595.72;10524137;28;20036;-73
2022/07/09 04:53:10;;;;;;;18.55;13.95;;;;;;;12.47;100.00;102591.91;10510826;28;20097;-74
2022/07/09 04:58:10;;;;;;;16.73;12.43;;;;;;;12.36;99.73;102589.34;10486660;28;20472;-73
2022/07/09 05:03:11;;;;;;;18.50;13.00;;;;;;;12.41;99.79;102588.88;10521148;28;20032;-74
2022/07/09 05:08:11;;;;;;;14.48;11.63;;;;;;;12.84;100.00;102584.66;10502573;28;20123;-76
2022/07/09 05:13:12;;;;;;;18.17;12.30;;;;;;;13.45;98.04;102579.84;10504793;28;20048;-73
2022/07/09 05:18:12;;;;;;;15.93;11.05;;;;;;;13.65;93.63;102572.31;10505464;28;20556;-74
2022/07/09 05:23:13;;;;;;;14.23;12.75;;;;;;;13.41;92.95;102588.31;10522387;28;20036;-74
2022/07/09 05:28:14;;;;;;;13.90;11.75;;;;;;;13.65;95.94;102580.19;10494528;28;20036;-75
2022/07/09 05:33:14;;;;;;;15.10;11.68;;;;;;;14.29;93.53;102565.63;10516518;28;20115;-73
2022/07/09 05:38:15;;;;;;;15.95;13.48;;;;;;;15.14;92.78;102553.81;10497187;28;20104;-74
2022/07/09 05:43:15;;;;;;;18.95;14.77;;;;;;;15.82;87.49;102558.38;10532637;28;20044;-75
2022/07/09 05:48:16;;;;;;;16.77;13.80;;;;;;;16.66;86.87;102562.66;10523911;28;20032;-75
2022/07/09 05:53:16;;;;;;;21.73;14.68;;;;;;;17.95;79.99;102567.75;10548286;28;20032;-76
2022/07/09 05:58:17;;;;;;;17.77;13.27;;;;;;;18.99;77.20;102573.06;10561773;28;20039;-74
2022/07/09 06:03:17;;;;;;;12.53;11.20;;;;;;;19.80;74.03;102565.50;10526393;28;20063;-75
2022/07/09 06:08:18;;;;;;;28.40;20.23;;;;;;;20.45;72.15;102565.13;10520010;28;20047;-75
2022/07/09 06:13:18;;;;;;;26.10;21.57;;;;;;;21.77;67.85;102560.34;10513952;28;20067;-75
2022/07/09 06:18:19;;;;;;;25.13;22.03;;;;;;;21.23;68.01;102551.66;10530266;28;20123;-75
2022/07/09 06:23:21;;;;;;;31.07;25.10;;;;;;;20.32;70.91;102552.28;10518894;28;20055;-74
2022/07/09 06:28:21;;;;;;;31.08;23.50;;;;;;;20.68;70.82;102551.69;10554037;28;20031;-74
2022/07/09 06:33:22;;;;;;;27.50;23.03;;;;;;;21.53;68.25;102551.66;10550546;28;20057;-75
2022/07/09 06:38:23;;;;;;;26.73;20.67;;;;;;;21.33;67.79;102537.75;10511266;28;20030;-76
2022/07/09 06:43:23;;;;;;;30.33;18.37;;;;;;;22.57;63.90;102542.91;10533475;28;20059;-75
2022/07/09 06:48:24;;;;;;;37.40;21.77;;;;;;;22.75;62.70;102541.56;10530127;28;20040;-75
2022/07/09 06:53:24;;;;;;;27.60;17.60;;;;;;;22.83;61.17;102543.50;10532982;28;20123;-74
2022/07/09 06:58:25;;;;;;;21.33;17.33;;;;;;;22.86;60.85;102545.38;10569760;28;20357;-75
2022/07/09 07:03:25;;;;;;;21.30;15.77;;;;;;;23.50;58.58;102547.69;10528983;28;20063;-74
2022/07/09 07:08:26;;;;;;;23.17;17.70;;;;;;;23.54;59.48;102543.28;10510980;28;20062;-74
2022/07/09 07:13:26;;;;;;;22.77;16.40;;;;;;;23.83;58.14;102548.31;10530739;28;20039;-74
2022/07/09 07:18:27;;;;;;;20.93;16.53;;;;;;;23.78;57.98;102550.91;10521680;28;20040;-73
2022/07/09 07:23:31;;;;;;;31.33;17.47;;;;;;;25.12;54.74;102551.34;10492994;28;20124;-74
2022/07/09 07:28:32;;;;;;;22.67;17.77;;;;;;;25.36;54.46;102540.06;10523158;28;20282;-74
2022/07/09 07:33:32;;;;;;;22.20;16.17;;;;;;;24.43;54.14;102540.47;10551105;28;20410;-73
2022/07/09 07:38:36;;;;;;;21.37;15.20;;;;;;;24.01;56.45;102532.63;10551516;28;20028;-74
2022/07/09 07:43:36;;;;;;;21.23;15.55;;;;;;;25.48;53.32;102542.03;10551081;28;20024;-75
2022/07/09 07:48:37;;;;;;;15.60;12.77;;;;;;;25.56;50.65;102525.13;10533902;28;20122;-75
2022/07/09 07:53:38;;;;;;;17.57;14.10;;;;;;;26.88;47.79;102531.69;10551892;28;20059;-75
2022/07/09 07:58:38;;;;;;;18.70;15.43;;;;;;;27.30;46.72;102518.44;10550351;28;20147;-75
2022/07/09 08:03:39;;;;;;;16.37;13.03;;;;;;;27.18;48.83;102530.94;10551250;28;20118;-74
2022/07/09 08:08:39;;;;;;;17.27;15.03;;;;;;;28.02;45.76;102533.88;10550031;28;20353;-75
2022/07/09 08:13:40;;;;;;;22.27;16.93;;;;;;;27.50;46.73;102534.69;10569034;28;20043;-74
2022/07/09 08:18:40;;;;;;;16.77;14.37;;;;;;;27.15;48.74;102530.03;10532309;28;20280;-75
2022/07/09 08:23:56;;;;;;;18.13;13.30;;;;;;;26.08;51.07;102539.06;10532910;28;20067;-76
2022/07/09 08:28:57;;;;;;;27.75;14.27;;;;;;;26.97;46.47;102527.25;10552156;28;20513;-74
2022/07/09 08:33:58;;;;;;;16.87;12.87;;;;;;;26.63;48.51;102516.28;10549455;28;20115;-74
2022/07/09 08:38:58;;;;;;;20.47;14.33;;;;;;;25.04;52.13;102515.53;10549333;28;20266;-75
2022/07/09 08:43:59;;;;;;;21.50;14.10;;;;;;;24.92;53.40;102516.28;10548901;28;20036;-75
2022/07/09 08:48:59;;;;;;;19.43;11.23;;;;;;;23.69;55.56;102516.88;10531856;28;20024;-76
2022/07/09 08:54:00;;;;;;;16.33;12.77;;;;;;;23.38;59.12;102507.34;10531966;28;20039;-75
2022/07/09 08:59:00;;;;;;;9.83;7.90;;;;;;;23.83;55.48;102493.09;10531904;28;20036;-75
2022/07/09 09:04:01;;;;;;;14.80;12.27;;;;;;;24.32;55.01;102489.47;10549771;28;20036;-75
2022/07/09 09:09:02;;;;;;;8.68;7.50;;;;;;;26.37;49.50;102476.72;10548754;28;20349;-75
2022/07/09 09:14:03;;;;;;;11.57;9.00;;;;;;;29.18;43.96;102462.78;10531416;28;20032;-75
2022/07/09 09:19:03;;;;;;;11.77;8.95;;;;;;;27.82;45.34;102445.97;10548461;28;20046;-76
2022/07/09 09:24:04;;;;;;;10.23;8.60;;;;;;;27.17;45.98;102458.38;10556836;28;20136;-74
2022/07/09 09:29:05;;;;;;;27.52;18.08;;;;;;;25.58;52.13;102456.34;10527023;28;20097;-74
2022/07/09 09:34:08;;;;;;;11.23;10.13;;;;;;;27.10;48.08;102454.78;10552171;28;20109;-74
2022/07/09 09:39:13;;;;;;;17.17;11.73;;;;;;;28.32;46.03;102451.38;10521938;28;20040;-74
2022/07/09 09:44:18;;;;;;;10.65;9.45;;;;;;;28.52;42.89;102456.72;10538376;28;20051;-75
2022/07/09 09:49:19;;;;;;;12.75;8.57;;;;;;;27.95;45.18;102454.97;10484632;28;20453;-74
2022/07/09 09:54:20;;;;;;;15.00;10.18;;;;;;;27.52;46.12;102458.50;10456089;28;20045;-75
2022/07/09 09:59:20;;;;;;;13.27;9.57;;;;;;;26.05;49.10;102450.53;10512729;28;20449;-73
2022/07/09 10:04:21;;;;;;;16.73;8.73;;;;;;;25.72;52.00;102452.03;10543110;28;20039;-75
2022/07/09 10:09:23;;;;;;;10.85;7.70;;;;;;;25.64;48.55;102453.72;10571748;28;20100;-75
2022/07/09 10:14:23;;;;;;;12.33;6.23;;;;;;;24.28;53.57;102451.06;10537996;28;20122;-75
2022/07/09 10:19:33;;;;;;;12.37;6.17;;;;;;;24.91;53.47;102436.81;10572834;28;20040;-74
2022/07/09 10:24:33;;;;;;;12.65;6.88;;;;;;;25.75;49.45;102419.00;10572098;28;20099;-74
2022/07/09 10:29:35;;;;;;;10.68;6.55;;;;;;;25.01;52.52;102436.06;10531402;28;20043;-74
2022/07/09 10:34:42;;;;;;;;;;;;;;;24.51;54.20;102430.91;10528216;28;20045;-74
2022/07/09 10:39:53;;;;;;;9.57;6.03;;;;;;;27.33;47.80;102422.59;10551558;28;19927;-74
2022/07/09 10:44:53;;;;;;;9.82;5.55;;;;;;;28.22;48.61;102414.59;10552927;28;20043;-73
2022/07/09 10:49:54;;;;;;;8.67;5.70;;;;;;;29.71;44.99;102401.34;10550557;28;20142;-74
2022/07/09 10:54:55;;;;;;;10.27;5.57;;;;;;;30.91;42.00;102400.97;10551838;28;20082;-74
2022/07/09 10:59:55;;;;;;;;;;;;;;;27.17;45.91;102410.03;10551508;28;20046;-73
2022/07/09 11:04:57;;;;;;;13.50;7.60;;;;;;;25.35;49.95;102415.00;10551130;28;20311;-74
2022/07/09 11:09:57;;;;;;;10.48;6.22;;;;;;;24.58;53.00;102400.66;10552366;28;20035;-74
2022/07/09 11:14:58;;;;;;;13.63;8.73;;;;;;;25.49;51.79;102399.09;10526307;28;20122;-74
2022/07/09 11:19:58;;;;;;;13.10;9.53;;;;;;;26.10;49.00;102392.44;10560130;28;20428;-74
2022/07/09 11:24:59;;;;;;;10.67;6.30;;;;;;;25.73;51.98;102388.59;10535956;28;20040;-74
2022/07/09 11:30:02;;;;;;;12.23;8.77;;;;;;;24.74;54.37;102385.72;10570501;27;20035;-74
2022/07/09 11:35:03;;;;;;;13.85;9.32;;;;;;;23.67;55.26;102376.09;10551077;28;20123;-74
2022/07/09 11:40:04;;;;;;;14.73;10.63;;;;;;;22.77;57.68;102391.25;10551380;28;20476;-74
2022/07/09 11:45:05;;;;;;;17.73;13.50;;;;;;;21.75;62.03;102404.84;10551567;28;20390;-74
2022/07/09 11:50:10;;;;;;;25.80;22.43;;;;;;;20.86;69.89;102425.44;10568830;28;20253;-75
2022/07/09 11:55:11;;;;;;;31.42;27.70;;;;;;;19.87;78.89;102413.44;10534338;28;20040;-74
2022/07/09 12:00:25;;;;;;;31.60;28.13;;;;;;;21.33;79.94;102411.72;10533403;28;20040;-74
2022/07/09 12:05:35;;;;;;;31.50;25.92;;;;;;;25.39;64.25;102399.84;10535288;28;21062;-74
2022/07/09 12:10:37;;;;;;;26.48;22.20;;;;;;;27.32;59.52;102390.34;10533914;28;20038;-74
2022/07/09 12:15:38;;;;;;;24.55;21.45;;;;;;;28.96;52.57;102382.03;10533278;28;20043;-74
2022/07/09 12:20:38;;;;;;;17.17;14.80;;;;;;;29.79;47.85;102378.78;10550517;28;20526;-74
2022/07/09 12:25:40;;;;;;;14.50;11.37;;;;;;;27.86;49.97;102374.28;10516518;28;20132;-74
2022/07/09 12:30:40;;;;;;;12.43;10.35;;;;;;;27.36;51.11;102370.63;10549674;28;20050;-74
2022/07/09 12:35:41;;;;;;;9.13;5.77;;;;;;;25.39;52.77;102372.19;10549492;28;20078;-75
2022/07/09 12:40:41;;;;;;;7.00;5.50;;;;;;;27.05;50.06;102370.56;10533164;28;20091;-74
2022/07/09 12:45:42;;;;;;;7.03;4.67;;;;;;;28.48;44.54;102360.69;10548838;28;20425;-74
2022/07/09 12:50:42;;;;;;;4.00;2.40;;;;;;;29.25;42.40;102354.00;10531944;28;20483;-74
2022/07/09 12:55:43;;;;;;;3.80;2.50;;;;;;;29.11;42.92;102361.28;10567132;28;20043;-75
2022/07/09 13:00:44;;;;;;;6.30;2.53;;;;;;;29.08;40.82;102355.91;10549332;28;20119;-75
2022/07/09 13:05:44;;;;;;;4.87;2.43;;;;;;;26.92;45.14;102370.53;10567167;28;20063;-75
2022/07/09 13:10:45;;;;;;;5.20;2.07;;;;;;;27.30;45.73;102357.19;10539360;28;20043;-75
2022/07/09 13:15:45;;;;;;;4.00;1.73;;;;;;;27.97;44.23;102372.47;10575559;28;20119;-75
2022/07/09 13:20:46;;;;;;;3.30;1.00;;;;;;;27.96;46.11;102361.69;10531014;28;20038;-74
2022/07/09 13:25:46;;;;;;;4.67;1.53;;;;;;;27.23;44.00;102369.72;10539668;28;20032;-74
2022/07/09 13:30:47;;;;;;;2.90;1.63;;;;;;;27.60;43.79;102359.03;10575597;28;20118;-74
2022/07/09 13:35:47;;;;;;;3.23;1.60;;;;;;;27.81;44.32;102368.00;10574179;28;20087;-74
2022/07/09 13:40:48;;;;;;;5.40;2.80;;;;;;;27.51;41.41;102373.38;10531770;28;20123;-74
2022/07/09 13:45:48;;;;;;;3.27;1.30;;;;;;;26.92;42.59;102361.59;10551085;28;20028;-74
2022/07/09 13:50:49;;;;;;;3.40;1.20;;;;;;;27.59;42.47;102362.63;10531465;28;20127;-74
2022/07/09 13:55:49;;;;;;;4.23;0.90;;;;;;;28.31;40.83;102365.25;10518528;28;20489;-74
2022/07/09 14:00:50;;;;;;;2.97;1.77;;;;;;;28.26;40.35;102366.16;10555299;28;20169;-74
2022/07/09 14:05:51;;;;;;;2.40;1.63;;;;;;;27.21;41.16;102369.72;10555966;28;20035;-74
2022/07/09 14:10:57;;;;;;;6.37;1.50;;;;;;;26.68;42.71;102376.69;10548077;28;20059;-74
2022/07/09 14:15:58;;;;;;;1.48;0.95;;;;;;;27.66;41.74;102371.56;10544849;28;20035;-74
2022/07/09 14:20:58;;;;;;;2.77;1.37;;;;;;;28.06;39.06;102385.00;10533321;28;20088;-74
2022/07/09 14:25:59;;;;;;;1.60;1.23;;;;;;;28.28;38.90;102366.13;10513600;28;20092;-74
2022/07/09 14:30:59;;;;;;;3.43;1.17;;;;;;;27.99;38.59;102367.06;10512731;28;20169;-74
2022/07/09 14:36:00;;;;;;;3.80;0.90;;;;;;;27.30;39.63;102370.63;10528385;28;20047;-74
2022/07/09 14:41:00;;;;;;;5.30;1.30;;;;;;;26.64;42.07;102373.09;10529795;28;20040;-75
2022/07/09 14:46:01;;;;;;;3.30;1.00;;;;;;;25.39;40.97;102383.78;10530478;28;20115;-74
2022/07/09 14:51:02;;;;;;;2.27;1.33;;;;;;;25.61;40.06;102379.56;10528218;28;20032;-74
2022/07/09 14:56:02;;;;;;;4.60;1.23;;;;;;;25.67;39.65;102377.81;10532729;28;20845;-74
2022/07/09 15:01:04;;;;;;;5.53;1.17;;;;;;;25.50;41.82;102376.75;10553843;28;20092;-74
2022/07/09 15:06:04;;;;;;;1.13;0.77;;;;;;;24.83;41.36;102390.31;10535180;28;20185;-76
2022/07/09 15:11:05;;;;;;;52.33;6.27;;;;;;;24.04;43.27;102382.94;10552392;28;20039;-74
2022/07/09 15:16:06;;;;;;;1.73;0.87;;;;;;;23.65;42.98;102377.81;10493777;28;20029;-74
2022/07/09 15:21:08;;;;;;;4.18;1.50;;;;;;;23.30;44.39;102376.31;10507425;28;20480;-74
2022/07/09 15:26:08;;;;;;;6.65;1.30;;;;;;;23.54;44.92;102372.28;10490012;28;20068;-74
2022/07/09 15:31:09;;;;;;;3.30;1.87;;;;;;;23.18;44.23;102368.94;10491658;28;20538;-74
2022/07/09 15:36:09;;;;;;;2.57;0.90;;;;;;;22.81;45.09;102370.88;10509346;28;20036;-74
2022/07/09 15:41:13;;;;;;;5.63;1.33;;;;;;;22.58;45.50;102366.84;10491936;28;20042;-74
2022/07/09 15:46:13;;;;;;;4.65;1.38;;;;;;;22.64;46.07;102363.44;10508576;28;20068;-75
2022/07/09 15:51:14;;;;;;;3.50;2.00;;;;;;;22.91;45.21;102362.19;10490995;28;20452;-74
2022/07/09 15:56:17;;;;;;;3.67;1.27;;;;;;;22.88;45.22;102363.00;10523667;28;20044;-74
2022/07/09 16:01:18;;;;;;;5.10;1.65;;;;;;;22.66;46.99;102344.75;10485593;28;20036;-75
2022/07/09 16:06:18;;;;;;;7.73;1.60;;;;;;;22.83;45.59;102351.34;10506039;28;20074;-74
2022/07/09 16:16:38;;;;;;;4.93;1.98;;;;;;;22.30;47.73;102347.53;10508199;28;20499;-74
2022/07/09 16:21:38;;;;;;;4.95;1.42;;;;;;;22.26;49.33;102340.34;10524243;28;20047;-74
2022/07/09 16:26:39;;;;;;;4.33;2.20;;;;;;;22.37;48.36;102340.59;10498817;28;20042;-74
2022/07/09 16:31:40;;;;;;;2.67;1.43;;;;;;;22.29;46.71;102336.84;10504444;28;20040;-74
2022/07/09 16:36:40;;;;;;;4.97;1.80;;;;;;;22.30;48.26;102339.53;10522128;28;20048;-76
2022/07/09 16:41:41;;;;;;;4.32;2.83;;;;;;;21.86;48.31;102342.06;10484067;28;20066;-75
2022/07/09 16:46:41;;;;;;;6.17;2.30;;;;;;;21.76;49.87;102342.69;10501513;28;20442;-74
2022/07/09 16:51:42;;;;;;;4.53;1.57;;;;;;;21.99;48.46;102348.59;10501898;28;20035;-74
2022/07/09 16:56:43;;;;;;;4.30;1.50;;;;;;;21.89;47.56;102352.81;10505666;28;20123;-75
2022/07/09 17:01:44;;;;;;;2.50;1.57;;;;;;;21.98;47.17;102353.03;10524391;28;20044;-74
2022/07/09 17:06:44;;;;;;;5.53;1.43;;;;;;;22.26;49.21;102358.13;10523334;28;20056;-74
2022/07/09 17:11:45;;;;;;;4.25;1.45;;;;;;;22.34;47.00;102356.53;10471157;28;20039;-75
2022/07/09 17:16:45;;;;;;;3.37;1.27;;;;;;;21.60;50.50;102352.06;10502936;28;20044;-76
2022/07/09 17:21:46;;;;;;;6.25;2.08;;;;;;;20.99;54.14;102353.09;10517514;28;20131;-77
2022/07/09 17:26:51;;;;;;;3.88;1.38;;;;;;;21.08;53.26;102364.00;10463855;28;20383;-74
2022/07/09 17:31:52;;;;;;;5.57;1.65;;;;;;;20.95;54.51;102367.19;10478605;28;20767;-74
2022/07/09 17:36:53;;;;;;;6.45;2.53;;;;;;;20.51;56.05;102387.16;10499405;28;20139;-74
2022/07/09 17:41:54;;;;;;;7.72;1.50;;;;;;;20.09;57.96;102375.25;10482866;28;20071;-74
2022/07/09 17:46:54;;;;;;;4.47;1.80;;;;;;;19.98;57.83;102386.34;10520867;28;20468;-73
2022/07/09 17:51:55;;;;;;;9.30;2.60;;;;;;;19.92;57.74;102389.72;10501936;28;20122;-74
2022/07/09 17:56:55;;;;;;;7.45;1.75;;;;;;;19.68;58.07;102390.66;10506700;28;20044;-74
2022/07/09 18:01:56;;;;;;;4.18;1.88;;;;;;;19.42;57.16;102398.63;10507902;28;20040;-75
2022/07/09 18:06:58;;;;;;;3.97;1.80;;;;;;;19.21;58.75;102410.28;10529376;28;20044;-75
2022/07/09 18:11:59;;;;;;;6.65;1.73;;;;;;;19.05;58.56;102421.19;10493416;27;20389;-74
2022/07/09 18:16:59;;;;;;;11.98;2.90;;;;;;;18.83;57.65;102425.63;10503355;28;20064;-75
2022/07/09 18:22:00;;;;;;;11.95;1.77;;;;;;;18.72;58.01;102421.66;10508187;28;20590;-77
2022/07/09 18:27:01;;;;;;;4.85;1.50;;;;;;;18.41;59.62;102429.28;10506798;28;20180;-77
2022/07/09 18:32:02;;;;;;;5.28;2.38;;;;;;;18.14;60.17;102437.94;10506986;28;20085;-74
2022/07/09 18:37:03;;;;;;;7.57;1.80;;;;;;;17.88;60.40;102440.34;10517465;28;20496;-73
2022/07/09 18:42:03;;;;;;;6.40;1.73;;;;;;;17.59;61.13;102447.06;10491604;28;20036;-74
2022/07/09 18:47:07;;;;;;;8.18;1.95;;;;;;;17.32;61.51;102450.28;10509059;28;20555;-74
2022/07/09 18:52:08;;;;;;;10.68;3.85;;;;;;;17.18;61.60;102460.22;10509406;28;20573;-74
2022/07/09 18:57:08;;;;;;;7.43;2.72;;;;;;;16.93;62.95;102467.00;10500781;28;20047;-74
2022/07/09 19:02:09;;;;;;;4.38;1.90;;;;;;;16.57;63.53;102467.03;10493159;28;20052;-76
2022/07/09 19:07:09;;;;;;;5.20;2.50;;;;;;;16.30;64.76;102470.13;10452364;28;20162;-75
2022/07/09 19:12:10;;;;;;;4.03;1.60;;;;;;;16.09;65.62;102476.16;10466415;28;20123;-75
2022/07/09 19:17:10;;;;;;;7.53;1.85;;;;;;;15.83;67.01;102477.44;10469925;28;20032;-75
2022/07/09 19:22:11;;;;;;;6.18;2.05;;;;;;;15.60;67.85;102482.44;10519852;28;20046;-74
2022/07/09 19:27:12;;;;;;;2.90;1.92;;;;;;;15.38;68.14;102489.19;10490820;28;20043;-73
2022/07/09 19:37:33;;;;;;;9.20;3.75;;;;;;;15.31;67.54;102507.25;10431540;28;20037;-74
2022/07/09 19:42:33;;;;;;;5.80;2.08;;;;;;;15.22;66.63;102503.28;10478330;28;20078;-73
2022/07/09 19:47:34;;;;;;;7.30;1.95;;;;;;;14.92;67.41;102515.69;10466251;28;20047;-73
2022/07/09 19:52:35;;;;;;;4.50;1.80;;;;;;;14.75;68.04;102523.53;10467432;28;20050;-73
2022/07/09 19:57:35;;;;;;;4.57;1.98;;;;;;;14.47;69.22;102531.53;10461028;28;20048;-73
2022/07/09 20:02:36;;;;;;;4.45;1.77;;;;;;;14.24;69.50;102532.03;10535341;28;20032;-74
2022/07/09 20:07:37;;;;;;;3.67;2.00;;;;;;;14.04;70.62;102543.97;10523727;28;20036;-74
2022/07/09 20:12:40;;;;;;;7.43;3.45;;;;;;;13.73;71.87;102547.38;10529712;28;20048;-73
2022/07/09 20:17:42;;;;;;;5.60;2.15;;;;;;;13.52;73.37;102552.22;10503380;28;20400;-74
2022/07/09 20:22:43;;;;;;;5.88;1.85;;;;;;;13.37;73.45;102570.53;10500335;28;20051;-74
2022/07/09 20:27:44;;;;;;;5.30;1.92;;;;;;;13.34;73.42;102560.75;10531860;28;20534;-73
2022/07/09 20:32:44;;;;;;;3.17;2.15;;;;;;;13.23;73.63;102564.41;10491856;28;20063;-74
2022/07/09 20:37:45;;;;;;;4.18;2.92;;;;;;;13.10;74.75;102553.91;10510955;28;20036;-74
2022/07/09 20:42:45;;;;;;;15.80;2.75;;;;;;;12.87;74.90;102564.75;10503084;28;20557;-73
2022/07/09 20:47:46;;;;;;;5.10;2.05;;;;;;;12.73;76.37;102568.19;10525386;28;20100;-74
2022/07/09 20:52:46;;;;;;;5.32;2.00;;;;;;;12.61;76.45;102576.19;10528731;28;20036;-74
2022/07/09 20:57:48;;;;;;;6.60;1.98;;;;;;;12.53;76.67;102575.66;10510060;28;20573;-75
2022/07/09 21:02:48;;;;;;;7.53;1.73;;;;;;;12.39;77.60;102581.69;10539741;28;20046;-74
2022/07/09 21:07:49;;;;;;;7.22;2.85;;;;;;;12.29;77.82;102583.69;10555208;28;20376;-73
2022/07/09 21:12:49;;;;;;;6.05;2.10;;;;;;;12.26;77.88;102583.47;10510772;28;20042;-73
2022/07/09 21:23:09;;;;;;;10.85;3.25;;;;;;;12.08;79.14;102583.13;10541092;28;20508;-73
2022/07/09 21:28:09;;;;;;;11.95;3.53;;;;;;;12.00;79.02;102589.56;10488601;28;20126;-73
2022/07/09 21:33:10;;;;;;;7.78;3.33;;;;;;;11.93;79.70;102584.66;10517806;28;20418;-74
2022/07/09 21:38:10;;;;;;;9.65;3.55;;;;;;;11.86;79.90;102594.75;10556225;28;20046;-74
2022/07/09 21:43:11;;;;;;;4.63;2.60;;;;;;;11.79;80.12;102575.81;10549154;28;20118;-73
2022/07/09 21:48:12;;;;;;;7.30;2.80;;;;;;;11.68;80.28;102570.72;10521321;28;20563;-74
2022/07/09 21:53:12;;;;;;;15.02;3.83;;;;;;;11.63;80.51;102563.34;10558228;28;20042;-74
2022/07/09 21:58:14;;;;;;;9.15;2.83;;;;;;;11.53;81.17;102580.13;10517621;28;20071;-74
2022/07/09 22:03:15;;;;;;;7.93;2.77;;;;;;;11.44;82.42;102568.19;10535822;28;20173;-74
2022/07/09 22:08:15;;;;;;;8.25;2.55;;;;;;;11.34;82.70;102568.34;10544867;28;20032;-74
2022/07/09 22:13:16;;;;;;;6.00;1.85;;;;;;;11.25;83.14;102575.53;10521141;28;20058;-74
2022/07/09 22:18:17;;;;;;;7.30;2.75;;;;;;;11.11;83.39;102564.06;10545962;28;20074;-74
2022/07/09 22:23:17;;;;;;;8.00;3.53;;;;;;;11.01;85.03;102568.63;10534406;28;20058;-75
2022/07/09 22:28:18;;;;;;;6.00;2.83;;;;;;;11.01;84.79;102576.50;10554026;28;20130;-74
2022/07/09 22:33:18;;;;;;;6.57;2.35;;;;;;;10.95;84.72;102568.19;10544192;28;20036;-74
2022/07/09 22:38:19;;;;;;;4.43;1.98;;;;;;;10.95;85.72;102567.25;10560861;28;20174;-74
2022/07/09 22:43:20;;;;;;;10.70;2.95;;;;;;;10.83;85.58;102573.41;10554305;28;20865;-75
2022/07/09 22:48:20;;;;;;;7.65;2.72;;;;;;;10.74;86.16;102577.09;10535990;28;20097;-74
2022/07/09 22:53:21;;;;;;;4.70;1.92;;;;;;;10.67;86.89;102575.69;10515714;28;20105;-74
2022/07/09 22:58:21;;;;;;;6.97;2.40;;;;;;;10.63;87.29;102576.25;10531047;28;20027;-75
2022/07/09 23:03:22;;;;;;;6.28;2.90;;;;;;;10.66;88.38;102576.50;10535157;28;20563;-74